Terminal Aerodrome Forecast
Issued by NWS

Home | Current Version | Previous Version | Text Only | Print | Product List | Glossary On
Versions: 1 2 3 4 5 6 7 8 9 10 11 12 13 14 15 16 17 18 19 20 21 22 23 24 25 26 27 28 29 30
000
FTUS44 KLIX 191135
TAFMSY
TAF
KMSY 191135Z 1912/2018 23006KT P6SM FEW050 SCT250
     FM191900 22007KT P6SM SCT050
     FM200100 19008KT P6SM SKC=

USA.gov is the U.S. government's official web portal to all federal, state and local government web resources and services.